Time;durP1;ratioP1;P1;durP2;ratioP2;P2;SDS_P1;SDS_P2;PMS_P1;PMS_P2;Temp;Humidity;BMP_temperature;BMP_pressure;BME280_temperature;BME280_humidity;BME280_pressure;Samples;Min_cycle;Max_cycle;Signal;HPM_P1;HPM_P2
2024/03/18 00:01:55;;;;;;;;;;;8.00;99.90;;;;;;4934875;28;20031;-78
2024/03/18 00:04:21;;;;;;;0.50;0.50;;;8.00;99.90;;;;;;4962434;28;20068;-78
2024/03/18 00:06:48;;;;;;;0.50;0.50;;;8.00;99.90;;;;;;4932222;28;20042;-77
2024/03/18 00:09:14;;;;;;;1.85;1.08;;;8.00;99.90;;;;;;4930440;28;20056;-77
2024/03/18 00:11:40;;;;;;;0.57;0.57;;;8.00;99.90;;;;;;4945232;28;20051;-77
2024/03/18 00:14:06;;;;;;;0.93;0.63;;;8.00;99.90;;;;;;4947399;28;20411;-77
2024/03/18 00:16:31;;;;;;;0.32;0.32;;;8.00;99.90;;;;;;4948295;28;20109;-78
2024/03/18 00:18:57;;;;;;;0.80;0.80;;;8.00;99.90;;;;;;4950344;28;20042;-77
2024/03/18 00:21:23;;;;;;;0.45;0.45;;;7.90;99.90;;;;;;4947884;28;20039;-78
2024/03/18 00:23:48;;;;;;;0.88;0.88;;;8.10;99.90;;;;;;4955391;28;20045;-77
2024/03/18 00:26:14;;;;;;;0.40;0.40;;;7.90;99.90;;;;;;4953043;28;20062;-77
2024/03/18 00:28:40;;;;;;;0.50;0.50;;;7.90;99.90;;;;;;4959527;28;20081;-77
2024/03/18 00:31:05;;;;;;;0.40;0.40;;;7.90;99.90;;;;;;4933898;28;20049;-75
2024/03/18 00:33:31;;;;;;;0.63;0.63;;;7.90;99.90;;;;;;4990787;28;20117;-76
2024/03/18 00:35:58;;;;;;;0.40;0.40;;;7.90;99.90;;;;;;4981297;28;20050;-76
2024/03/18 00:38:24;;;;;;;0.30;0.30;;;7.90;99.90;;;;;;4962309;28;20053;-77
2024/03/18 00:41:44;;;;;;;1.38;1.27;;;7.90;99.90;;;;;;4964247;28;20479;-75
2024/03/18 00:43:37;;;;;;;0.60;0.60;;;7.90;99.90;;;;;;4991373;28;20046;-78
2024/03/18 00:46:02;;;;;;;0.50;0.50;;;8.00;99.90;;;;;;4973921;28;20035;-79
2024/03/18 00:48:29;;;;;;;0.20;0.20;;;7.90;99.90;;;;;;4957925;28;20129;-82
2024/03/18 00:50:55;;;;;;;0.50;0.50;;;7.90;99.90;;;;;;4987037;28;20049;-78
2024/03/18 00:53:21;;;;;;;0.77;0.77;;;7.90;99.90;;;;;;4971536;28;20494;-78
2024/03/18 00:55:46;;;;;;;0.40;0.40;;;7.90;99.90;;;;;;4990790;28;20393;-78
2024/03/18 00:58:12;;;;;;;0.85;0.65;;;7.90;99.90;;;;;;4971226;28;20545;-79
2024/03/18 01:00:37;;;;;;;0.30;0.30;;;7.80;99.90;;;;;;4971369;28;20077;-78
2024/03/18 01:03:03;;;;;;;1.23;1.13;;;7.90;99.90;;;;;;4970135;28;20034;-79
2024/03/18 01:05:29;;;;;;;0.50;0.50;;;7.90;99.90;;;;;;4951179;28;20046;-78
2024/03/18 01:07:58;;;;;;;0.47;0.47;;;7.90;99.90;;;;;;4970210;28;20044;-79
2024/03/18 01:10:24;;;;;;;0.55;0.55;;;7.80;99.90;;;;;;4954354;28;20096;-79
2024/03/18 01:12:49;;;;;;;0.50;0.50;;;8.00;99.90;;;;;;4955984;28;20502;-79
2024/03/18 01:15:15;;;;;;;0.60;0.60;;;7.80;99.90;;;;;;4973718;28;20406;-79
2024/03/18 01:17:41;;;;;;;1.02;1.02;;;7.80;99.90;;;;;;4938856;28;20052;-79
2024/03/18 01:20:09;;;;;;;;;;;7.80;99.90;;;;;;4971034;28;20053;-79
2024/03/18 01:22:35;;;;;;;0.50;0.50;;;7.80;99.90;;;;;;4972967;28;20416;-79
2024/03/18 01:25:01;;;;;;;0.60;0.60;;;7.80;99.90;;;;;;4985237;28;20038;-78
2024/03/18 01:27:28;;;;;;;0.73;0.73;;;7.80;99.90;;;;;;4990818;28;20061;-78
2024/03/18 01:29:55;;;;;;;0.43;0.43;;;7.70;99.90;;;;;;4970386;28;20042;-77
2024/03/18 01:32:22;;;;;;;0.43;0.43;;;7.70;99.90;;;;;;4971377;28;20482;-77
2024/03/18 01:34:49;;;;;;;0.32;0.32;;;7.70;99.90;;;;;;4974059;28;20394;-77
2024/03/18 01:37:15;;;;;;;0.50;0.50;;;7.70;99.90;;;;;;4989745;28;20042;-77
2024/03/18 01:39:40;;;;;;;0.65;0.65;;;7.70;99.90;;;;;;4954817;28;20050;-78
2024/03/18 01:42:06;;;;;;;1.30;1.30;;;7.70;99.90;;;;;;4970227;28;20049;-76
2024/03/18 01:44:32;;;;;;;0.50;0.50;;;7.70;99.90;;;;;;4971029;28;20110;-77
2024/03/18 01:46:57;;;;;;;0.50;0.50;;;7.70;99.90;;;;;;4968504;28;20038;-77
2024/03/18 01:49:23;;;;;;;0.40;0.40;;;7.70;99.90;;;;;;4988368;28;20046;-76
2024/03/18 01:51:49;;;;;;;0.40;0.40;;;7.70;99.90;;;;;;4957159;28;20192;-78
2024/03/18 01:54:16;;;;;;;0.47;0.43;;;7.70;99.90;;;;;;4990431;28;20066;-77
2024/03/18 01:56:42;;;;;;;1.02;0.98;;;7.70;99.90;;;;;;4971863;28;20045;-78
2024/03/18 01:59:10;;;;;;;0.50;0.50;;;7.70;99.90;;;;;;4969433;28;20155;-78
2024/03/18 02:01:36;;;;;;;0.50;0.50;;;7.70;99.90;;;;;;4969323;28;20046;-78
2024/03/18 02:04:09;;;;;;;0.50;0.50;;;7.70;99.90;;;;;;4971319;28;20081;-78
2024/03/18 02:06:41;;;;;;;3.20;0.90;;;7.60;99.90;;;;;;4970872;28;20117;-78
2024/03/18 02:09:08;;;;;;;0.63;0.63;;;7.70;99.90;;;;;;4989257;28;20307;-78
2024/03/18 02:11:34;;;;;;;0.50;0.50;;;7.70;99.90;;;;;;4989220;28;20175;-78
2024/03/18 02:14:00;;;;;;;0.40;0.40;;;7.70;99.90;;;;;;4971584;28;20125;-78
2024/03/18 02:16:27;;;;;;;1.10;0.82;;;7.70;99.90;;;;;;4924679;28;20068;-78
2024/03/18 02:18:53;;;;;;;1.38;1.23;;;7.70;99.90;;;;;;4970206;28;20042;-78
2024/03/18 02:21:18;;;;;;;0.40;0.40;;;8.70;99.90;;;;;;4969800;28;20089;-77
2024/03/18 02:23:44;;;;;;;0.40;0.40;;;7.70;99.90;;;;;;4972431;28;20453;-77
2024/03/18 02:26:10;;;;;;;0.40;0.40;;;7.70;99.90;;;;;;4969955;28;20044;-76
2024/03/18 02:28:42;;;;;;;1.20;1.10;;;8.20;99.90;;;;;;4953430;28;20108;-77
2024/03/18 02:31:07;;;;;;;0.55;0.55;;;7.60;99.90;;;;;;4944517;28;20208;-77
2024/03/18 02:33:35;;;;;;;0.50;0.50;;;7.60;99.90;;;;;;4961910;28;20535;-77
2024/03/18 02:36:04;;;;;;;0.50;0.50;;;7.80;99.90;;;;;;4952789;28;20414;-77
2024/03/18 02:38:30;;;;;;;0.95;0.95;;;7.60;99.90;;;;;;4959624;28;20043;-77
2024/03/18 02:40:56;;;;;;;1.08;1.08;;;7.50;99.90;;;;;;4981705;28;20137;-76
2024/03/18 02:43:21;;;;;;;0.60;0.60;;;7.70;99.90;;;;;;4946410;28;20039;-78
2024/03/18 02:45:47;;;;;;;6.00;5.45;;;7.50;99.90;;;;;;4978561;28;20050;-76
2024/03/18 02:48:14;;;;;;;0.40;0.40;;;7.50;99.90;;;;;;4959973;28;20582;-77
2024/03/18 02:50:41;;;;;;;0.55;0.55;;;7.50;99.90;;;;;;4976618;28;20042;-77
2024/03/18 02:53:07;;;;;;;0.50;0.50;;;7.40;99.90;;;;;;4945210;28;20057;-76
2024/03/18 02:55:32;;;;;;;0.40;0.40;;;7.40;99.90;;;;;;4960292;28;20400;-77
2024/03/18 02:57:58;;;;;;;0.70;0.70;;;7.40;99.90;;;;;;4909304;28;20039;-77
2024/03/18 03:00:24;;;;;;;0.50;0.50;;;7.60;99.90;;;;;;4961208;28;20062;-78
2024/03/18 03:02:49;;;;;;;0.70;0.70;;;7.40;99.90;;;;;;4942108;28;20042;-78
2024/03/18 03:05:15;;;;;;;0.40;0.40;;;7.30;99.90;;;;;;4960824;28;20073;-77
2024/03/18 03:07:41;;;;;;;0.85;0.85;;;7.30;99.90;;;;;;4957327;28;20423;-77
2024/03/18 03:10:07;;;;;;;0.60;0.60;;;7.40;99.90;;;;;;4947653;28;20070;-77
2024/03/18 03:12:33;;;;;;;0.90;0.77;;;7.30;99.90;;;;;;4944793;28;20125;-78
2024/03/18 03:14:59;;;;;;;0.60;0.60;;;7.30;99.90;;;;;;4982582;28;20650;-77
2024/03/18 03:17:25;;;;;;;1.85;0.70;;;7.30;99.90;;;;;;4979269;28;20027;-78
2024/03/18 03:19:51;;;;;;;0.63;0.63;;;7.30;99.90;;;;;;4964259;28;20058;-77
2024/03/18 03:22:22;;;;;;;1.38;1.38;;;7.30;99.90;;;;;;4946226;28;20446;-77
2024/03/18 03:24:48;;;;;;;0.52;0.52;;;7.30;99.90;;;;;;4948311;28;20035;-78
2024/03/18 03:27:15;;;;;;;0.40;0.40;;;7.30;99.90;;;;;;4977025;28;20030;-79
2024/03/18 03:29:42;;;;;;;0.40;0.40;;;7.20;99.90;;;;;;4988944;28;20082;-79
2024/03/18 03:32:10;;;;;;;0.57;0.43;;;7.20;99.90;;;;;;4988251;28;20053;-79
2024/03/18 03:34:37;;;;;;;0.40;0.40;;;8.00;99.90;;;;;;4987870;28;20038;-79
2024/03/18 03:37:03;;;;;;;0.60;0.60;;;7.10;99.90;;;;;;4968603;28;20397;-78
2024/03/18 03:39:29;;;;;;;;;;;7.20;99.90;;;;;;4976135;28;20045;-78
2024/03/18 03:41:55;;;;;;;0.45;0.45;;;7.10;99.90;;;;;;4988298;28;20325;-78
2024/03/18 03:44:21;;;;;;;0.40;0.40;;;7.20;99.90;;;;;;4970077;28;20045;-78
2024/03/18 03:46:50;;;;;;;0.90;0.90;;;7.10;99.90;;;;;;4972740;28;20038;-78
2024/03/18 03:49:17;;;;;;;0.43;0.43;;;7.10;99.90;;;;;;4974845;28;20042;-78
2024/03/18 03:51:42;;;;;;;0.40;0.40;;;7.10;99.90;;;;;;4973920;28;20129;-78
2024/03/18 03:54:09;;;;;;;0.50;0.50;;;7.10;99.90;;;;;;4973597;28;20133;-79
2024/03/18 03:56:34;;;;;;;0.60;0.60;;;7.10;99.90;;;;;;4973479;28;20054;-79
2024/03/18 03:59:00;;;;;;;0.35;0.35;;;7.10;99.90;;;;;;4972580;28;20077;-79
2024/03/18 04:01:26;;;;;;;0.60;0.60;;;7.20;99.90;;;;;;4990731;28;20049;-78
2024/03/18 04:03:52;;;;;;;0.60;0.60;;;7.10;99.90;;;;;;4974082;28;20046;-78
2024/03/18 04:06:17;;;;;;;0.30;0.30;;;7.10;99.90;;;;;;4970871;28;20049;-78
2024/03/18 04:08:43;;;;;;;0.98;0.60;;;7.20;99.90;;;;;;4940564;28;20054;-77
2024/03/18 04:11:09;;;;;;;1.95;1.85;;;7.20;99.90;;;;;;4972649;28;20049;-76
2024/03/18 04:13:35;;;;;;;0.50;0.50;;;7.70;99.90;;;;;;4991644;28;20043;-77
2024/03/18 04:16:02;;;;;;;0.60;0.60;;;7.10;99.90;;;;;;4979686;28;20077;-77
2024/03/18 04:18:28;;;;;;;0.32;0.32;;;7.20;99.90;;;;;;4972767;28;20085;-77
2024/03/18 04:20:53;;;;;;;;;;;7.20;99.90;;;;;;4973052;28;20038;-77
2024/03/18 04:23:19;;;;;;;0.85;0.75;;;7.20;99.90;;;;;;4976140;28;20054;-77
2024/03/18 04:25:45;;;;;;;0.30;0.30;;;7.20;99.90;;;;;;4955759;28;20434;-77
2024/03/18 04:28:10;;;;;;;0.63;0.63;;;7.20;99.90;;;;;;4970515;28;20062;-78
2024/03/18 04:30:37;;;;;;;0.60;0.60;;;7.20;99.90;;;;;;4972924;28;20054;-78
2024/03/18 04:33:04;;;;;;;0.95;0.95;;;7.30;99.90;;;;;;4990825;28;20039;-77
2024/03/18 04:35:30;;;;;;;0.50;0.50;;;7.20;99.90;;;;;;4956832;28;20042;-77
2024/03/18 04:37:55;;;;;;;0.40;0.40;;;7.80;99.90;;;;;;4940846;28;20042;-77
2024/03/18 04:40:23;;;;;;;0.50;0.50;;;7.30;99.90;;;;;;4971321;28;20038;-77
2024/03/18 04:42:51;;;;;;;0.63;0.63;;;7.30;99.90;;;;;;4989872;28;20038;-77
2024/03/18 04:45:19;;;;;;;0.43;0.43;;;7.20;99.90;;;;;;4950972;28;20121;-78
2024/03/18 04:47:52;;;;;;;0.65;0.65;;;7.30;99.90;;;;;;4973521;28;20058;-79
2024/03/18 04:50:23;;;;;;;0.38;0.38;;;7.30;99.90;;;;;;4970943;28;20034;-78
2024/03/18 04:52:50;;;;;;;0.55;0.55;;;7.30;99.90;;;;;;4965852;28;20113;-78
2024/03/18 04:55:16;;;;;;;0.70;0.70;;;7.30;99.90;;;;;;4955277;28;20038;-77
2024/03/18 04:57:43;;;;;;;0.55;0.55;;;7.30;99.90;;;;;;4970498;28;20109;-77
2024/03/18 05:00:16;;;;;;;0.80;0.80;;;7.30;99.90;;;;;;4972613;28;20486;-77
2024/03/18 05:02:42;;;;;;;1.75;0.47;;;7.30;99.90;;;;;;4955930;28;20042;-76
2024/03/18 05:05:10;;;;;;;0.40;0.40;;;8.00;99.90;;;;;;4956656;28;20041;-77
2024/03/18 05:07:36;;;;;;;0.50;0.50;;;7.30;99.90;;;;;;4971924;28;20050;-77
2024/03/18 05:10:03;;;;;;;0.77;0.77;;;7.30;99.90;;;;;;4972705;28;20538;-77
2024/03/18 05:12:29;;;;;;;1.85;1.75;;;7.30;99.90;;;;;;4967722;28;20530;-77
2024/03/18 05:14:55;;;;;;;1.05;1.05;;;7.30;99.90;;;;;;4971817;28;20046;-78
2024/03/18 05:17:22;;;;;;;;;;;7.30;99.90;;;;;;4989348;28;20042;-77
2024/03/18 05:19:49;;;;;;;0.40;0.40;;;7.30;99.90;;;;;;4966251;28;19922;-77
2024/03/18 05:22:14;;;;;;;0.77;0.77;;;7.30;99.90;;;;;;4972409;28;20082;-77
2024/03/18 05:24:43;;;;;;;5.93;1.05;;;7.20;99.90;;;;;;4971947;28;20447;-77
2024/03/18 05:27:11;;;;;;;0.60;0.60;;;7.30;99.90;;;;;;4971739;28;20054;-78
2024/03/18 05:29:37;;;;;;;0.95;0.95;;;7.20;99.90;;;;;;4970287;28;20061;-78
2024/03/18 05:32:14;;;;;;;0.57;0.57;;;7.40;99.90;;;;;;4956057;28;20076;-78
2024/03/18 05:34:40;;;;;;;;;;;7.30;99.90;;;;;;4950714;28;20498;-79
2024/03/18 05:37:06;;;;;;;0.52;0.52;;;7.20;99.90;;;;;;4953146;28;19917;-77
2024/03/18 05:39:33;;;;;;;2.78;0.85;;;7.30;99.90;;;;;;4951898;28;20046;-78
2024/03/18 05:41:59;;;;;;;2.08;1.65;;;7.20;99.90;;;;;;4969798;28;20113;-78
2024/03/18 05:44:25;;;;;;;0.40;0.40;;;7.20;99.90;;;;;;4954200;28;20121;-78
2024/03/18 05:46:51;;;;;;;;;;;7.80;99.90;;;;;;4988136;28;20038;-78
2024/03/18 05:49:17;;;;;;;0.73;0.73;;;7.30;99.90;;;;;;4970105;28;20016;-77
2024/03/18 05:51:44;;;;;;;0.50;0.50;;;7.80;99.90;;;;;;4967066;28;20414;-77
2024/03/18 05:54:10;;;;;;;0.50;0.50;;;7.40;99.90;;;;;;4968872;28;20042;-77
2024/03/18 05:56:35;;;;;;;0.40;0.40;;;7.30;99.90;;;;;;4954273;28;20042;-77
2024/03/18 05:59:01;;;;;;;1.17;1.17;;;7.30;99.90;;;;;;4987198;28;20096;-78
2024/03/18 06:01:27;;;;;;;0.60;0.60;;;7.30;99.90;;;;;;4989114;28;20091;-78
2024/03/18 06:03:52;;;;;;;0.57;0.57;;;7.30;99.90;;;;;;4970663;28;20757;-78
2024/03/18 06:06:18;;;;;;;1.58;1.52;;;7.30;99.90;;;;;;4989041;28;20046;-77
2024/03/18 06:08:44;;;;;;;2.17;1.02;;;7.20;99.90;;;;;;4955417;28;20042;-77
2024/03/18 06:11:11;;;;;;;0.40;0.40;;;7.30;99.90;;;;;;4972159;28;20034;-78
2024/03/18 06:13:36;;;;;;;0.63;0.63;;;7.30;99.90;;;;;;4971324;28;20395;-78
2024/03/18 06:16:02;;;;;;;0.75;0.75;;;7.30;99.90;;;;;;4963147;28;20030;-76
2024/03/18 06:18:29;;;;;;;0.73;0.73;;;7.30;99.90;;;;;;4971089;28;20038;-78
2024/03/18 06:20:56;;;;;;;;;;;7.40;99.90;;;;;;4971793;28;20045;-76
2024/03/18 06:23:25;;;;;;;0.75;0.75;;;7.40;99.90;;;;;;4971048;28;20079;-76
2024/03/18 06:26:03;;;;;;;0.50;0.50;;;7.40;99.90;;;;;;4953494;28;20039;-78
2024/03/18 06:28:36;;;;;;;0.60;0.60;;;7.40;99.90;;;;;;4961552;28;20059;-76
2024/03/18 06:31:01;;;;;;;0.85;0.85;;;7.40;99.90;;;;;;4951267;28;20104;-77
2024/03/18 06:33:27;;;;;;;1.00;0.88;;;7.50;99.90;;;;;;4960033;28;20042;-78
2024/03/18 06:35:54;;;;;;;0.30;0.30;;;7.50;99.90;;;;;;4942935;28;20047;-76
2024/03/18 06:38:21;;;;;;;0.60;0.60;;;7.50;99.90;;;;;;4961120;28;20077;-77
2024/03/18 06:40:48;;;;;;;0.40;0.40;;;7.50;99.90;;;;;;4959925;28;20050;-77
2024/03/18 06:43:15;;;;;;;0.50;0.50;;;7.50;99.90;;;;;;4977720;28;20415;-76
2024/03/18 06:45:41;;;;;;;2.03;0.90;;;7.60;99.90;;;;;;4954099;28;20054;-78
2024/03/18 06:48:07;;;;;;;2.05;1.85;;;7.60;99.90;;;;;;4953599;28;20039;-78
2024/03/18 06:50:36;;;;;;;;;;;7.60;99.90;;;;;;4939972;28;20623;-80
2024/03/18 06:53:03;;;;;;;0.50;0.50;;;7.60;99.90;;;;;;4959022;28;19924;-78
2024/03/18 06:55:28;;;;;;;;;;;7.60;99.90;;;;;;4940360;28;20125;-77
2024/03/18 06:57:54;;;;;;;2.72;0.63;;;7.80;99.90;;;;;;4936596;28;20013;-76
2024/03/18 07:00:23;;;;;;;0.50;0.50;;;7.70;99.90;;;;;;4954259;28;20053;-76
2024/03/18 07:02:49;;;;;;;1.35;1.23;;;7.70;99.90;;;;;;4982741;28;20382;-77
2024/03/18 07:05:16;;;;;;;0.50;0.50;;;7.70;99.90;;;;;;4975611;28;21281;-77
2024/03/18 07:07:43;;;;;;;0.93;0.90;;;7.80;99.90;;;;;;4931853;28;20085;-77
2024/03/18 07:10:09;;;;;;;0.60;0.60;;;8.30;99.90;;;;;;4931092;28;20517;-77
2024/03/18 07:12:35;;;;;;;0.30;0.30;;;8.00;99.90;;;;;;4959923;28;20051;-76
2024/03/18 07:15:01;;;;;;;0.82;0.82;;;8.00;99.90;;;;;;4964895;28;20047;-76
2024/03/18 07:17:26;;;;;;;0.50;0.50;;;7.90;99.90;;;;;;4944114;28;20043;-76
2024/03/18 07:19:52;;;;;;;0.57;0.57;;;7.90;99.90;;;;;;4937305;28;20093;-75
2024/03/18 07:22:18;;;;;;;0.75;0.75;;;8.00;99.90;;;;;;4972893;28;20031;-76
2024/03/18 07:24:44;;;;;;;0.70;0.70;;;8.10;99.90;;;;;;4950517;28;20055;-75
2024/03/18 07:27:09;;;;;;;0.43;0.43;;;8.10;99.90;;;;;;4964035;28;20550;-75
2024/03/18 07:29:35;;;;;;;0.40;0.40;;;8.10;99.90;;;;;;4985396;28;20046;-75
2024/03/18 07:32:01;;;;;;;0.57;0.57;;;8.60;99.90;;;;;;4973123;28;20132;-76
2024/03/18 07:34:27;;;;;;;2.95;1.90;;;8.10;99.90;;;;;;4973423;28;20096;-77
2024/03/18 07:36:53;;;;;;;;;;;8.20;99.90;;;;;;4983955;28;20516;-76
2024/03/18 07:39:20;;;;;;;1.38;1.35;;;8.20;99.90;;;;;;4974624;28;19929;-76
2024/03/18 07:41:46;;;;;;;0.40;0.40;;;8.60;99.90;;;;;;4982633;28;20049;-76
2024/03/18 07:44:12;;;;;;;0.65;0.65;;;8.30;99.90;;;;;;4958656;28;20506;-75
2024/03/18 07:46:37;;;;;;;0.43;0.43;;;8.40;99.90;;;;;;4959167;28;20053;-75
2024/03/18 07:49:03;;;;;;;1.05;0.90;;;8.40;99.90;;;;;;4973582;28;20053;-75
2024/03/18 07:51:29;;;;;;;0.40;0.40;;;8.40;99.90;;;;;;4969836;28;20042;-75
2024/03/18 07:53:55;;;;;;;0.55;0.55;;;8.50;99.90;;;;;;4974013;28;20060;-75
2024/03/18 07:56:21;;;;;;;0.30;0.30;;;8.50;99.90;;;;;;4974115;28;20062;-76
2024/03/18 07:58:47;;;;;;;1.77;0.68;;;8.50;99.90;;;;;;4999221;28;20050;-75
2024/03/18 08:01:13;;;;;;;0.55;0.55;;;8.60;99.90;;;;;;4973757;28;20042;-74
2024/03/18 08:03:39;;;;;;;0.40;0.40;;;8.60;99.90;;;;;;4941891;28;20057;-75
2024/03/18 08:06:09;;;;;;;0.40;0.40;;;8.60;99.90;;;;;;4971437;28;20490;-75
2024/03/18 08:08:35;;;;;;;0.40;0.40;;;8.60;99.90;;;;;;4972264;28;20502;-75
2024/03/18 08:11:01;;;;;;;0.40;0.40;;;8.60;99.90;;;;;;4990807;28;20052;-75
2024/03/18 08:13:26;;;;;;;0.52;0.52;;;8.70;99.90;;;;;;4958372;28;20052;-75
2024/03/18 08:15:52;;;;;;;1.52;1.42;;;8.70;99.90;;;;;;4990722;28;20045;-75
2024/03/18 08:18:18;;;;;;;0.40;0.40;;;8.60;99.90;;;;;;4974889;28;20047;-76
2024/03/18 08:20:43;;;;;;;1.27;1.20;;;8.70;99.90;;;;;;4956902;28;20053;-76
2024/03/18 08:23:09;;;;;;;0.95;0.93;;;8.70;99.90;;;;;;4951456;28;20053;-75
2024/03/18 08:25:35;;;;;;;0.82;0.82;;;8.70;99.90;;;;;;4968284;28;20038;-76
2024/03/18 08:28:01;;;;;;;1.80;1.20;;;8.80;99.90;;;;;;4972635;28;20049;-75
2024/03/18 08:30:26;;;;;;;0.45;0.45;;;8.80;99.90;;;;;;4970678;28;20508;-75
2024/03/18 08:32:52;;;;;;;0.65;0.65;;;8.90;99.90;;;;;;4971738;28;20077;-75
2024/03/18 08:35:18;;;;;;;0.40;0.40;;;8.80;99.90;;;;;;4970370;28;20085;-76
2024/03/18 08:37:44;;;;;;;0.30;0.30;;;8.90;99.90;;;;;;4983664;28;20034;-75
2024/03/18 08:40:10;;;;;;;1.63;1.52;;;8.90;99.90;;;;;;4958428;28;20564;-74
2024/03/18 08:42:36;;;;;;;;;;;8.90;99.90;;;;;;4991398;28;20065;-75
2024/03/18 08:45:02;;;;;;;1.10;1.10;;;9.00;99.90;;;;;;4972944;28;19917;-75
2024/03/18 08:47:28;;;;;;;0.73;0.73;;;9.00;99.90;;;;;;4983884;28;20429;-76
2024/03/18 08:49:53;;;;;;;0.30;0.30;;;9.00;99.90;;;;;;4956544;28;20051;-75
2024/03/18 08:52:19;;;;;;;5.05;1.75;;;9.10;99.90;;;;;;4967581;28;20050;-74
2024/03/18 08:54:47;;;;;;;1.45;1.33;;;9.10;99.90;;;;;;4986469;28;20482;-75
2024/03/18 08:57:12;;;;;;;1.25;0.98;;;9.20;99.90;;;;;;4974137;28;20110;-74
2024/03/18 08:59:38;;;;;;;1.45;1.35;;;9.20;99.90;;;;;;4961200;28;20131;-75
2024/03/18 09:02:04;;;;;;;0.20;0.20;;;9.30;99.90;;;;;;4982144;28;20038;-76
2024/03/18 09:04:30;;;;;;;1.08;1.08;;;9.40;99.90;;;;;;4974293;28;20482;-75
2024/03/18 09:06:55;;;;;;;0.40;0.40;;;9.50;99.90;;;;;;4975914;28;20060;-75
2024/03/18 09:09:21;;;;;;;0.60;0.40;;;9.80;99.90;;;;;;4987570;28;20192;-76
2024/03/18 09:11:47;;;;;;;0.57;0.57;;;9.60;99.90;;;;;;4979420;28;20085;-75
2024/03/18 09:14:13;;;;;;;0.90;0.90;;;9.60;99.90;;;;;;4958170;28;20054;-75
2024/03/18 09:16:40;;;;;;;0.30;0.30;;;9.80;99.90;;;;;;4968718;28;20078;-76
2024/03/18 09:19:06;;;;;;;0.85;0.85;;;9.60;99.90;;;;;;4945745;28;20078;-74
2024/03/18 09:21:32;;;;;;;0.45;0.45;;;9.70;99.90;;;;;;4970830;28;20072;-75
2024/03/18 09:23:58;;;;;;;1.90;1.70;;;9.60;99.90;;;;;;4970198;28;20049;-75
2024/03/18 09:26:24;;;;;;;0.50;0.50;;;9.60;99.90;;;;;;4982639;28;20430;-76
2024/03/18 09:28:50;;;;;;;0.60;0.60;;;9.60;99.90;;;;;;4974358;28;20063;-75
2024/03/18 09:31:16;;;;;;;0.40;0.40;;;9.60;99.90;;;;;;4936630;28;20046;-76
2024/03/18 09:33:41;;;;;;;0.55;0.55;;;9.60;99.90;;;;;;4971082;28;20561;-75
2024/03/18 09:36:07;;;;;;;0.50;0.50;;;9.60;99.90;;;;;;4951440;28;20096;-75
2024/03/18 09:38:33;;;;;;;4.78;2.15;;;9.90;99.90;;;;;;4970381;28;20405;-75
2024/03/18 09:41:06;;;;;;;1.52;1.15;;;9.70;99.90;;;;;;4952985;28;20054;-75
2024/03/18 09:43:35;;;;;;;0.73;0.60;;;9.70;99.90;;;;;;4935482;28;20039;-76
2024/03/18 09:46:05;;;;;;;0.65;0.65;;;9.70;99.90;;;;;;4968422;28;20039;-74
2024/03/18 09:48:34;;;;;;;0.77;0.68;;;9.70;99.90;;;;;;4933890;28;20061;-75
2024/03/18 09:51:00;;;;;;;0.40;0.40;;;9.70;99.90;;;;;;4970506;28;20046;-75
2024/03/18 09:53:28;;;;;;;0.80;0.80;;;9.70;99.90;;;;;;4970476;28;20112;-75
2024/03/18 09:55:54;;;;;;;1.67;1.15;;;9.80;99.90;;;;;;4937690;28;20407;-75
2024/03/18 09:58:19;;;;;;;1.25;1.15;;;9.70;99.90;;;;;;4944872;28;20047;-74
2024/03/18 10:00:45;;;;;;;0.47;0.47;;;9.70;99.90;;;;;;4953512;28;20112;-74
2024/03/18 10:03:18;;;;;;;1.23;1.23;;;9.70;99.90;;;;;;4952651;28;20043;-75
2024/03/18 10:05:46;;;;;;;1.50;1.40;;;9.80;99.90;;;;;;4937321;28;20360;-75
2024/03/18 10:08:16;;;;;;;1.45;0.50;;;9.80;99.90;;;;;;4948619;28;20042;-75
2024/03/18 10:10:46;;;;;;;1.95;0.77;;;9.80;99.90;;;;;;4924157;28;20039;-75
2024/03/18 10:13:12;;;;;;;3.03;1.75;;;9.80;99.90;;;;;;4937415;28;20403;-75
2024/03/18 10:15:41;;;;;;;1.23;1.13;;;9.80;99.90;;;;;;4951186;28;20051;-75
2024/03/18 10:18:11;;;;;;;0.82;0.70;;;9.80;99.90;;;;;;4952621;28;20038;-75
2024/03/18 10:20:38;;;;;;;1.35;1.27;;;9.70;99.90;;;;;;4952928;28;20043;-75
2024/03/18 10:23:05;;;;;;;1.52;0.77;;;9.70;99.90;;;;;;4952393;28;20039;-76
2024/03/18 10:25:31;;;;;;;0.30;0.30;;;9.70;99.90;;;;;;4937451;28;20054;-75
2024/03/18 10:27:57;;;;;;;;;;;10.00;99.90;;;;;;4973474;28;20060;-74
2024/03/18 10:30:23;;;;;;;0.40;0.40;;;9.60;99.90;;;;;;4956465;28;19917;-74
2024/03/18 10:32:54;;;;;;;1.00;0.90;;;9.60;99.90;;;;;;4972201;28;20046;-76
2024/03/18 10:35:26;;;;;;;0.85;0.85;;;9.70;99.90;;;;;;4989825;28;20494;-74
2024/03/18 10:37:57;;;;;;;1.10;1.08;;;9.80;99.90;;;;;;4985834;28;20042;-75
2024/03/18 10:40:36;;;;;;;1.10;0.50;;;9.90;99.90;;;;;;4970357;28;20054;-76
2024/03/18 10:43:03;;;;;;;1.33;1.30;;;10.00;99.90;;;;;;4989496;28;20121;-76
2024/03/18 10:45:31;;;;;;;0.82;0.82;;;10.10;99.90;;;;;;4985301;28;20038;-76
2024/03/18 10:48:02;;;;;;;0.35;0.35;;;10.10;99.90;;;;;;4981110;28;20081;-76
2024/03/18 10:50:29;;;;;;;0.50;0.50;;;10.20;99.90;;;;;;4955561;28;20034;-76
2024/03/18 10:52:55;;;;;;;;;;;10.30;99.90;;;;;;4970052;28;20053;-76
2024/03/18 10:55:22;;;;;;;0.98;0.98;;;10.30;99.90;;;;;;4991317;28;19961;-75
2024/03/18 10:58:01;;;;;;;0.38;0.38;;;10.30;99.90;;;;;;4976397;28;20057;-74
2024/03/18 11:00:28;;;;;;;1.50;1.02;;;10.40;99.90;;;;;;4992641;28;20062;-75
2024/03/18 11:03:03;;;;;;;0.55;0.55;;;10.50;99.90;;;;;;4986711;28;20045;-74
2024/03/18 11:05:32;;;;;;;0.43;0.43;;;10.50;99.90;;;;;;4975004;28;20038;-76
2024/03/18 11:08:06;;;;;;;0.40;0.40;;;10.70;99.90;;;;;;4970632;28;20050;-75
2024/03/18 11:10:38;;;;;;;0.30;0.30;;;10.80;99.90;;;;;;4986015;28;20041;-75
2024/03/18 11:13:11;;;;;;;0.98;0.73;;;10.90;99.90;;;;;;4959585;28;20112;-75
2024/03/18 11:15:56;;;;;;;0.40;0.40;;;10.90;99.90;;;;;;4974840;28;20409;-76
2024/03/18 11:18:27;;;;;;;0.82;0.82;;;11.10;99.90;;;;;;4967905;28;20042;-77
2024/03/18 11:20:57;;;;;;;0.70;0.70;;;11.20;99.90;;;;;;4960415;28;20038;-76
2024/03/18 11:23:25;;;;;;;0.50;0.50;;;11.30;99.90;;;;;;4989814;28;20042;-76
2024/03/18 11:25:55;;;;;;;0.60;0.60;;;11.30;99.90;;;;;;4959107;28;20100;-76
2024/03/18 11:28:34;;;;;;;0.50;0.50;;;11.30;99.90;;;;;;4973966;28;20139;-76
2024/03/18 11:31:02;;;;;;;0.32;0.32;;;11.20;99.90;;;;;;4958870;28;20062;-76
2024/03/18 11:33:28;;;;;;;0.75;0.75;;;11.10;99.90;;;;;;4993097;28;20046;-77
2024/03/18 11:35:53;;;;;;;0.63;0.63;;;11.00;99.90;;;;;;4973585;28;20053;-75
2024/03/18 11:38:19;;;;;;;0.30;0.30;;;10.90;99.90;;;;;;4974173;28;20069;-76
2024/03/18 11:40:47;;;;;;;0.35;0.35;;;10.90;99.90;;;;;;4973949;28;20041;-76
2024/03/18 11:43:13;;;;;;;0.40;0.40;;;10.70;99.90;;;;;;4992966;28;20027;-75
2024/03/18 11:45:39;;;;;;;0.75;0.75;;;10.70;99.90;;;;;;4990088;28;20613;-75
2024/03/18 11:48:09;;;;;;;0.20;0.20;;;10.80;99.90;;;;;;4973384;28;20057;-77
2024/03/18 11:50:41;;;;;;;0.40;0.40;;;10.80;99.90;;;;;;4992755;28;20512;-74
2024/03/18 11:53:09;;;;;;;0.57;0.43;;;10.90;99.90;;;;;;4941751;28;20049;-76
2024/03/18 11:55:40;;;;;;;0.38;0.38;;;11.00;99.90;;;;;;4958246;28;20054;-76
2024/03/18 11:58:07;;;;;;;0.20;0.20;;;11.10;99.90;;;;;;4973227;28;20049;-75
2024/03/18 12:00:34;;;;;;;0.20;0.20;;;11.10;99.90;;;;;;4949796;28;20133;-76
2024/03/18 12:03:11;;;;;;;1.05;1.05;;;11.10;99.90;;;;;;4958862;28;20041;-76
2024/03/18 12:05:43;;;;;;;0.40;0.40;;;11.20;99.90;;;;;;4962930;28;20074;-77
2024/03/18 12:08:17;;;;;;;0.73;0.73;;;11.20;99.90;;;;;;4967989;28;20108;-76
2024/03/18 12:10:44;;;;;;;1.05;1.05;;;11.20;99.90;;;;;;4968865;28;20211;-75
2024/03/18 12:13:11;;;;;;;1.35;1.30;;;11.20;99.90;;;;;;4970199;28;20502;-75
2024/03/18 12:15:38;;;;;;;0.32;0.32;;;11.20;99.90;;;;;;4990691;28;20083;-76
2024/03/18 12:18:07;;;;;;;0.60;0.60;;;11.20;99.90;;;;;;4998368;28;20041;-78
2024/03/18 12:20:33;;;;;;;0.20;0.20;;;11.30;99.90;;;;;;4956554;28;20133;-77
2024/03/18 12:23:01;;;;;;;2.25;2.15;;;11.40;99.90;;;;;;4981771;28;20034;-76
2024/03/18 12:31:12;;;;;;;0.77;0.73;;;11.50;99.90;;;;;;4968088;28;20133;-76
2024/03/18 12:33:40;;;;;;;0.70;0.70;;;11.50;99.90;;;;;;4991938;28;20092;-76
2024/03/18 12:36:13;;;;;;;0.38;0.38;;;11.50;99.90;;;;;;4973103;28;20038;-75
2024/03/18 12:38:43;;;;;;;0.80;0.80;;;11.40;99.90;;;;;;4972898;28;20126;-76
2024/03/18 12:41:20;;;;;;;0.30;0.30;;;11.40;99.90;;;;;;4987836;28;20069;-75
2024/03/18 12:43:46;;;;;;;1.05;0.95;;;11.40;99.90;;;;;;4987994;28;20030;-76
2024/03/18 12:46:16;;;;;;;0.70;0.70;;;11.40;99.90;;;;;;4973760;28;20187;-76
2024/03/18 12:48:43;;;;;;;0.65;0.65;;;11.30;99.90;;;;;;4972855;28;20050;-76
2024/03/18 12:51:11;;;;;;;0.47;0.47;;;11.20;99.90;;;;;;4989998;28;20046;-76
2024/03/18 12:53:37;;;;;;;0.20;0.20;;;11.30;99.90;;;;;;4972178;28;20073;-76
2024/03/18 12:56:04;;;;;;;0.40;0.40;;;11.30;99.90;;;;;;4973462;28;20062;-75
2024/03/18 12:58:33;;;;;;;0.25;0.25;;;11.30;99.90;;;;;;4976448;28;20046;-75
2024/03/18 13:01:03;;;;;;;0.60;0.60;;;11.20;99.90;;;;;;4968849;28;20049;-76
2024/03/18 13:03:29;;;;;;;0.43;0.43;;;11.20;99.90;;;;;;4961793;28;20058;-76
2024/03/18 13:05:55;;;;;;;;;;;11.20;99.90;;;;;;4992876;28;20037;-76